Portada
METAR-TAF:

METAR-TAF

Aeroports :

Rio Branco, Acre, Brasil

latitud: 10-00S, longitud: 067-48W, altitud: 142 m

Observació

L'informe es va fer fa 31 minuts, a les 17:00 UTC
Vent 4 kt amb direcció variable
Temperatura 31°C
Humitat 63%
Pressió 1008 hPa
Visibilitat 10 km o més
Cel ennuvolat a una alçada de 2500 ft

METAR: SBRB 171700Z VRB04KT 9999 BKN025 31/23 Q1008

Hora: 12:31 (17:31 UTC)

Pronòstic

L'informe es va fer fa 8 hores i 1 minuts, a les 09:30 UTC
Pronòstic vàlid del 17 a les 12 UTC al 17 a les 24 UTC
Vent 5 kt del Nord/Nord-Oest
Visibilitat: 7000 m
Núvols disperses a una alçada de 500 ft
Temporalment
l' 17 a les 15 UTC al 17 a les 21 UTC
Visibilitat: 3000 m
Cel ennuvolat a una alçada de 1500 ft
Escasses núvols a una alçada de 2500 ft, Cumulus congestus.
pluja

TAF: SBRB 170930Z 1712/1724 33005KT 7000 SCT005 TN23/1712Z TX29/1718Z TEMPO 1715/1721 3000 RA BKN015 FEW025TCU RMK PHI

Observacions i pronòstics meteorològics de més de 4000 aeroports (METAR i TAF).

Les estacions disponibles són els punts grocs i vermells al mapa.

Posi el ratolí al punt desitjat per veure el nom de l'estació.

Feu clic per veure les observacions i els pronòstics meteorològics.

Per canviar el mapa: feu clic els botons verds amb una creu de color negre per apropar; al botó verd amb un guió per allunyar la imatge; o en les fletxes verdes per a mapes adjacents.


METAR-TAF: